Terminal Aerodrome Forecast
Issued by NWS

Home | Current Version | Previous Version | Text Only | Print | Product List | Glossary On
Versions: 1 2 3 4 5 6 7 8 9 10 11 12 13 14 15 16 17 18 19
336
FTUS43 KLSX 050104 AAA
TAFUIN
TAF AMD
KUIN 050104Z 0501/0524 32008KT P6SM SCT080
     FM050200 33007KT P6SM SKC
     FM051500 34010KT P6SM SKC=

USA.gov is the U.S. government's official web portal to all federal, state and local government web resources and services.